sensor_id;sensor_type;location;lat;lon;timestamp;P1;durP1;ratioP1;P2;durP2;ratioP2
3999;SDS011;2014;53.604;10.112;2023-03-03T00:00:40;27.20;;;12.83;;
3999;SDS011;2014;53.604;10.112;2023-03-03T00:03:08;22.30;;;11.67;;
3999;SDS011;2014;53.604;10.112;2023-03-03T00:05:36;22.17;;;11.90;;
3999;SDS011;2014;53.604;10.112;2023-03-03T00:08:05;23.13;;;11.70;;
3999;SDS011;2014;53.604;10.112;2023-03-03T00:10:32;23.60;;;12.03;;
3999;SDS011;2014;53.604;10.112;2023-03-03T00:12:59;20.03;;;12.60;;
3999;SDS011;2014;53.604;10.112;2023-03-03T00:15:27;25.30;;;14.07;;
3999;SDS011;2014;53.604;10.112;2023-03-03T00:17:55;25.07;;;13.87;;
3999;SDS011;2014;53.604;10.112;2023-03-03T00:20:26;24.40;;;13.27;;
3999;SDS011;2014;53.604;10.112;2023-03-03T00:22:55;26.77;;;15.23;;
3999;SDS011;2014;53.604;10.112;2023-03-03T00:25:27;24.47;;;13.37;;
3999;SDS011;2014;53.604;10.112;2023-03-03T00:27:54;26.00;;;13.67;;
3999;SDS011;2014;53.604;10.112;2023-03-03T00:30:22;28.03;;;12.70;;
3999;SDS011;2014;53.604;10.112;2023-03-03T00:32:50;26.07;;;14.80;;
3999;SDS011;2014;53.604;10.112;2023-03-03T00:35:20;27.63;;;13.23;;
3999;SDS011;2014;53.604;10.112;2023-03-03T00:37:50;22.07;;;12.90;;
3999;SDS011;2014;53.604;10.112;2023-03-03T00:40:20;36.23;;;13.80;;
3999;SDS011;2014;53.604;10.112;2023-03-03T00:42:50;23.67;;;13.47;;
3999;SDS011;2014;53.604;10.112;2023-03-03T00:45:31;14.03;;;10.67;;
3999;SDS011;2014;53.604;10.112;2023-03-03T00:48:07;19.53;;;12.67;;
3999;SDS011;2014;53.604;10.112;2023-03-03T00:50:36;41.63;;;13.03;;
3999;SDS011;2014;53.604;10.112;2023-03-03T00:53:06;18.80;;;11.73;;
3999;SDS011;2014;53.604;10.112;2023-03-03T00:55:36;27.77;;;11.70;;
3999;SDS011;2014;53.604;10.112;2023-03-03T00:58:05;19.90;;;10.63;;
3999;SDS011;2014;53.604;10.112;2023-03-03T01:00:33;35.90;;;11.40;;
3999;SDS011;2014;53.604;10.112;2023-03-03T01:03:01;17.10;;;11.20;;
3999;SDS011;2014;53.604;10.112;2023-03-03T01:05:29;23.50;;;10.63;;
3999;SDS011;2014;53.604;10.112;2023-03-03T01:07:56;26.10;;;11.17;;
3999;SDS011;2014;53.604;10.112;2023-03-03T01:10:24;25.30;;;11.83;;
3999;SDS011;2014;53.604;10.112;2023-03-03T01:12:52;15.33;;;12.17;;
3999;SDS011;2014;53.604;10.112;2023-03-03T01:15:21;16.83;;;11.43;;
3999;SDS011;2014;53.604;10.112;2023-03-03T01:17:48;22.13;;;11.20;;
3999;SDS011;2014;53.604;10.112;2023-03-03T01:20:16;42.47;;;11.83;;
3999;SDS011;2014;53.604;10.112;2023-03-03T01:22:43;17.90;;;10.87;;
3999;SDS011;2014;53.604;10.112;2023-03-03T01:25:10;20.67;;;10.83;;
3999;SDS011;2014;53.604;10.112;2023-03-03T01:27:38;27.63;;;12.73;;
3999;SDS011;2014;53.604;10.112;2023-03-03T01:30:06;23.50;;;12.70;;
3999;SDS011;2014;53.604;10.112;2023-03-03T01:32:35;13.73;;;10.60;;
3999;SDS011;2014;53.604;10.112;2023-03-03T01:35:02;17.10;;;10.57;;
3999;SDS011;2014;53.604;10.112;2023-03-03T01:37:29;16.97;;;10.80;;
3999;SDS011;2014;53.604;10.112;2023-03-03T01:39:57;18.07;;;10.20;;
3999;SDS011;2014;53.604;10.112;2023-03-03T01:42:24;59.83;;;11.13;;
3999;SDS011;2014;53.604;10.112;2023-03-03T01:45:09;15.07;;;10.40;;
3999;SDS011;2014;53.604;10.112;2023-03-03T01:47:40;41.13;;;11.97;;
3999;SDS011;2014;53.604;10.112;2023-03-03T01:50:09;17.80;;;11.43;;
3999;SDS011;2014;53.604;10.112;2023-03-03T01:52:39;16.57;;;11.00;;
3999;SDS011;2014;53.604;10.112;2023-03-03T01:55:07;15.33;;;11.33;;
3999;SDS011;2014;53.604;10.112;2023-03-03T01:57:38;19.70;;;11.30;;
3999;SDS011;2014;53.604;10.112;2023-03-03T02:00:07;12.83;;;11.23;;
3999;SDS011;2014;53.604;10.112;2023-03-03T02:02:34;13.57;;;10.77;;
3999;SDS011;2014;53.604;10.112;2023-03-03T02:05:04;16.53;;;11.80;;
3999;SDS011;2014;53.604;10.112;2023-03-03T02:07:31;16.07;;;10.10;;
3999;SDS011;2014;53.604;10.112;2023-03-03T02:10:00;22.27;;;11.70;;
3999;SDS011;2014;53.604;10.112;2023-03-03T02:12:31;12.40;;;11.10;;
3999;SDS011;2014;53.604;10.112;2023-03-03T02:14:59;12.93;;;8.80;;
3999;SDS011;2014;53.604;10.112;2023-03-03T02:17:26;20.60;;;10.40;;
3999;SDS011;2014;53.604;10.112;2023-03-03T02:19:56;30.47;;;10.77;;
3999;SDS011;2014;53.604;10.112;2023-03-03T02:22:30;13.00;;;10.53;;
3999;SDS011;2014;53.604;10.112;2023-03-03T02:24:59;35.97;;;10.43;;
3999;SDS011;2014;53.604;10.112;2023-03-03T02:27:29;25.37;;;9.83;;
3999;SDS011;2014;53.604;10.112;2023-03-03T02:29:57;14.60;;;10.00;;
3999;SDS011;2014;53.604;10.112;2023-03-03T02:32:33;34.43;;;10.53;;
3999;SDS011;2014;53.604;10.112;2023-03-03T02:35:01;14.73;;;10.80;;
3999;SDS011;2014;53.604;10.112;2023-03-03T02:37:28;17.30;;;10.77;;
3999;SDS011;2014;53.604;10.112;2023-03-03T02:39:55;16.03;;;9.50;;
3999;SDS011;2014;53.604;10.112;2023-03-03T02:42:24;16.53;;;8.60;;
3999;SDS011;2014;53.604;10.112;2023-03-03T02:44:54;31.87;;;9.60;;
3999;SDS011;2014;53.604;10.112;2023-03-03T02:47:22;52.13;;;10.50;;
3999;SDS011;2014;53.604;10.112;2023-03-03T02:49:49;9.73;;;8.50;;
3999;SDS011;2014;53.604;10.112;2023-03-03T02:52:17;15.60;;;9.27;;
3999;SDS011;2014;53.604;10.112;2023-03-03T02:54:44;16.67;;;10.30;;
3999;SDS011;2014;53.604;10.112;2023-03-03T02:57:11;29.37;;;9.50;;
3999;SDS011;2014;53.604;10.112;2023-03-03T02:59:38;23.83;;;9.20;;
3999;SDS011;2014;53.604;10.112;2023-03-03T03:02:07;41.20;;;10.13;;
3999;SDS011;2014;53.604;10.112;2023-03-03T03:04:34;36.23;;;9.80;;
3999;SDS011;2014;53.604;10.112;2023-03-03T03:07:02;39.87;;;9.97;;
3999;SDS011;2014;53.604;10.112;2023-03-03T03:09:29;15.00;;;8.47;;
3999;SDS011;2014;53.604;10.112;2023-03-03T03:11:57;16.57;;;9.73;;
3999;SDS011;2014;53.604;10.112;2023-03-03T03:14:26;20.47;;;10.67;;
3999;SDS011;2014;53.604;10.112;2023-03-03T03:16:53;12.40;;;9.30;;
3999;SDS011;2014;53.604;10.112;2023-03-03T03:19:22;10.27;;;9.27;;
3999;SDS011;2014;53.604;10.112;2023-03-03T03:21:49;17.70;;;9.47;;
3999;SDS011;2014;53.604;10.112;2023-03-03T03:24:17;37.77;;;9.30;;
3999;SDS011;2014;53.604;10.112;2023-03-03T03:26:44;13.90;;;8.77;;
3999;SDS011;2014;53.604;10.112;2023-03-03T03:29:11;34.60;;;8.80;;
3999;SDS011;2014;53.604;10.112;2023-03-03T03:31:38;15.50;;;8.87;;
3999;SDS011;2014;53.604;10.112;2023-03-03T03:34:07;9.17;;;8.27;;
3999;SDS011;2014;53.604;10.112;2023-03-03T03:36:36;10.27;;;8.17;;
3999;SDS011;2014;53.604;10.112;2023-03-03T03:39:04;8.30;;;7.60;;
3999;SDS011;2014;53.604;10.112;2023-03-03T03:41:31;36.60;;;8.73;;
3999;SDS011;2014;53.604;10.112;2023-03-03T03:43:58;23.43;;;9.63;;
3999;SDS011;2014;53.604;10.112;2023-03-03T03:46:26;12.70;;;8.67;;
3999;SDS011;2014;53.604;10.112;2023-03-03T03:48:53;10.93;;;8.10;;
3999;SDS011;2014;53.604;10.112;2023-03-03T03:51:20;9.33;;;8.03;;
3999;SDS011;2014;53.604;10.112;2023-03-03T03:53:49;9.97;;;8.93;;
3999;SDS011;2014;53.604;10.112;2023-03-03T03:56:16;11.80;;;9.30;;
3999;SDS011;2014;53.604;10.112;2023-03-03T03:58:43;12.67;;;7.60;;
3999;SDS011;2014;53.604;10.112;2023-03-03T04:01:11;15.40;;;9.27;;
3999;SDS011;2014;53.604;10.112;2023-03-03T04:03:38;9.37;;;8.63;;
3999;SDS011;2014;53.604;10.112;2023-03-03T04:06:06;11.63;;;9.30;;
3999;SDS011;2014;53.604;10.112;2023-03-03T04:08:33;14.63;;;8.13;;
3999;SDS011;2014;53.604;10.112;2023-03-03T04:11:01;47.47;;;9.07;;
3999;SDS011;2014;53.604;10.112;2023-03-03T04:13:29;17.83;;;9.33;;
3999;SDS011;2014;53.604;10.112;2023-03-03T04:15:59;7.17;;;6.47;;
3999;SDS011;2014;53.604;10.112;2023-03-03T04:18:26;27.03;;;8.47;;
3999;SDS011;2014;53.604;10.112;2023-03-03T04:20:53;9.10;;;7.43;;
3999;SDS011;2014;53.604;10.112;2023-03-03T04:23:21;20.73;;;8.30;;
3999;SDS011;2014;53.604;10.112;2023-03-03T04:25:48;9.90;;;8.90;;
3999;SDS011;2014;53.604;10.112;2023-03-03T04:28:17;13.30;;;11.20;;
3999;SDS011;2014;53.604;10.112;2023-03-03T04:30:46;20.53;;;9.47;;
3999;SDS011;2014;53.604;10.112;2023-03-03T04:33:13;26.87;;;10.03;;
3999;SDS011;2014;53.604;10.112;2023-03-03T04:35:40;12.33;;;10.50;;
3999;SDS011;2014;53.604;10.112;2023-03-03T04:38:07;16.27;;;10.50;;
3999;SDS011;2014;53.604;10.112;2023-03-03T04:40:35;10.13;;;9.13;;
3999;SDS011;2014;53.604;10.112;2023-03-03T04:43:02;18.00;;;11.07;;
3999;SDS011;2014;53.604;10.112;2023-03-03T04:45:31;13.33;;;10.30;;
3999;SDS011;2014;53.604;10.112;2023-03-03T04:47:58;20.33;;;10.23;;
3999;SDS011;2014;53.604;10.112;2023-03-03T04:50:25;16.80;;;10.03;;
3999;SDS011;2014;53.604;10.112;2023-03-03T04:52:53;17.70;;;9.37;;
3999;SDS011;2014;53.604;10.112;2023-03-03T04:55:20;16.70;;;10.43;;
3999;SDS011;2014;53.604;10.112;2023-03-03T04:57:48;10.53;;;9.53;;
3999;SDS011;2014;53.604;10.112;2023-03-03T05:00:15;26.80;;;10.13;;
3999;SDS011;2014;53.604;10.112;2023-03-03T05:02:46;9.43;;;8.53;;
3999;SDS011;2014;53.604;10.112;2023-03-03T05:05:13;9.67;;;8.80;;
3999;SDS011;2014;53.604;10.112;2023-03-03T05:07:43;10.03;;;9.10;;
3999;SDS011;2014;53.604;10.112;2023-03-03T05:10:10;10.43;;;8.57;;
3999;SDS011;2014;53.604;10.112;2023-03-03T05:12:37;8.90;;;8.00;;
3999;SDS011;2014;53.604;10.112;2023-03-03T05:15:05;18.00;;;8.67;;
3999;SDS011;2014;53.604;10.112;2023-03-03T05:17:33;14.90;;;8.43;;
3999;SDS011;2014;53.604;10.112;2023-03-03T05:20:02;12.57;;;8.07;;
3999;SDS011;2014;53.604;10.112;2023-03-03T05:22:29;8.47;;;7.57;;
3999;SDS011;2014;53.604;10.112;2023-03-03T05:24:57;14.10;;;8.70;;
3999;SDS011;2014;53.604;10.112;2023-03-03T05:27:24;10.87;;;7.70;;
3999;SDS011;2014;53.604;10.112;2023-03-03T05:29:51;11.03;;;7.80;;
3999;SDS011;2014;53.604;10.112;2023-03-03T05:32:18;11.63;;;8.73;;
3999;SDS011;2014;53.604;10.112;2023-03-03T05:34:46;8.30;;;7.67;;
3999;SDS011;2014;53.604;10.112;2023-03-03T05:37:15;10.83;;;8.93;;
3999;SDS011;2014;53.604;10.112;2023-03-03T05:39:42;8.53;;;7.63;;
3999;SDS011;2014;53.604;10.112;2023-03-03T05:42:10;11.03;;;8.50;;
3999;SDS011;2014;53.604;10.112;2023-03-03T05:44:37;18.30;;;9.10;;
3999;SDS011;2014;53.604;10.112;2023-03-03T05:47:05;22.03;;;8.53;;
3999;SDS011;2014;53.604;10.112;2023-03-03T05:49:32;9.10;;;7.80;;
3999;SDS011;2014;53.604;10.112;2023-03-03T05:51:59;20.83;;;7.90;;
3999;SDS011;2014;53.604;10.112;2023-03-03T05:54:28;15.63;;;8.83;;
3999;SDS011;2014;53.604;10.112;2023-03-03T05:56:56;9.67;;;8.73;;
3999;SDS011;2014;53.604;10.112;2023-03-03T05:59:23;18.30;;;8.80;;
3999;SDS011;2014;53.604;10.112;2023-03-03T06:01:50;11.33;;;8.03;;
3999;SDS011;2014;53.604;10.112;2023-03-03T06:04:18;23.13;;;8.07;;
3999;SDS011;2014;53.604;10.112;2023-03-03T06:06:45;10.90;;;8.80;;
3999;SDS011;2014;53.604;10.112;2023-03-03T06:09:12;18.90;;;8.90;;
3999;SDS011;2014;53.604;10.112;2023-03-03T06:11:44;11.90;;;8.57;;
3999;SDS011;2014;53.604;10.112;2023-03-03T06:14:11;11.97;;;8.93;;
3999;SDS011;2014;53.604;10.112;2023-03-03T06:16:39;10.13;;;8.07;;
3999;SDS011;2014;53.604;10.112;2023-03-03T06:19:06;11.93;;;9.10;;
3999;SDS011;2014;53.604;10.112;2023-03-03T06:21:34;9.53;;;8.60;;
3999;SDS011;2014;53.604;10.112;2023-03-03T06:24:01;12.60;;;9.30;;
3999;SDS011;2014;53.604;10.112;2023-03-03T06:26:28;12.00;;;8.73;;
3999;SDS011;2014;53.604;10.112;2023-03-03T06:28:57;9.63;;;8.63;;
3999;SDS011;2014;53.604;10.112;2023-03-03T06:31:24;9.43;;;8.30;;
3999;SDS011;2014;53.604;10.112;2023-03-03T06:33:52;13.40;;;9.33;;
3999;SDS011;2014;53.604;10.112;2023-03-03T06:36:19;16.07;;;8.20;;
3999;SDS011;2014;53.604;10.112;2023-03-03T06:38:47;12.00;;;9.00;;
3999;SDS011;2014;53.604;10.112;2023-03-03T06:41:15;13.33;;;8.97;;
3999;SDS011;2014;53.604;10.112;2023-03-03T06:43:42;8.93;;;7.90;;
3999;SDS011;2014;53.604;10.112;2023-03-03T06:46:11;11.23;;;8.30;;
3999;SDS011;2014;53.604;10.112;2023-03-03T06:48:38;11.30;;;7.63;;
3999;SDS011;2014;53.604;10.112;2023-03-03T06:51:10;11.40;;;8.00;;
3999;SDS011;2014;53.604;10.112;2023-03-03T06:53:41;14.87;;;8.63;;
3999;SDS011;2014;53.604;10.112;2023-03-03T06:56:08;19.63;;;6.93;;
3999;SDS011;2014;53.604;10.112;2023-03-03T06:58:35;10.47;;;8.17;;
3999;SDS011;2014;53.604;10.112;2023-03-03T07:01:04;22.73;;;8.00;;
3999;SDS011;2014;53.604;10.112;2023-03-03T07:03:38;9.30;;;7.97;;
3999;SDS011;2014;53.604;10.112;2023-03-03T07:06:08;11.23;;;8.23;;
3999;SDS011;2014;53.604;10.112;2023-03-03T07:08:40;9.13;;;8.23;;
3999;SDS011;2014;53.604;10.112;2023-03-03T07:11:10;10.10;;;8.37;;
3999;SDS011;2014;53.604;10.112;2023-03-03T07:13:39;8.83;;;7.93;;
3999;SDS011;2014;53.604;10.112;2023-03-03T07:16:10;8.90;;;8.07;;
3999;SDS011;2014;53.604;10.112;2023-03-03T07:18:42;11.67;;;8.60;;
3999;SDS011;2014;53.604;10.112;2023-03-03T07:21:13;9.03;;;8.23;;
3999;SDS011;2014;53.604;10.112;2023-03-03T07:23:42;9.53;;;8.50;;
3999;SDS011;2014;53.604;10.112;2023-03-03T07:26:10;8.83;;;8.00;;
3999;SDS011;2014;53.604;10.112;2023-03-03T07:28:39;13.33;;;8.40;;
3999;SDS011;2014;53.604;10.112;2023-03-03T07:31:15;8.27;;;7.47;;
3999;SDS011;2014;53.604;10.112;2023-03-03T07:33:44;10.67;;;8.73;;
3999;SDS011;2014;53.604;10.112;2023-03-03T07:36:21;7.80;;;7.10;;
3999;SDS011;2014;53.604;10.112;2023-03-03T07:38:50;7.37;;;6.67;;
3999;SDS011;2014;53.604;10.112;2023-03-03T07:41:19;21.80;;;8.17;;
3999;SDS011;2014;53.604;10.112;2023-03-03T07:43:47;19.40;;;6.80;;
3999;SDS011;2014;53.604;10.112;2023-03-03T07:46:26;26.90;;;8.17;;
3999;SDS011;2014;53.604;10.112;2023-03-03T07:48:56;7.63;;;6.87;;
3999;SDS011;2014;53.604;10.112;2023-03-03T07:51:25;7.83;;;7.13;;
3999;SDS011;2014;53.604;10.112;2023-03-03T07:53:53;7.23;;;6.70;;
3999;SDS011;2014;53.604;10.112;2023-03-03T07:56:24;13.77;;;6.63;;
3999;SDS011;2014;53.604;10.112;2023-03-03T07:58:53;4.80;;;4.40;;
3999;SDS011;2014;53.604;10.112;2023-03-03T08:01:40;15.90;;;8.57;;
3999;SDS011;2014;53.604;10.112;2023-03-03T08:04:14;8.10;;;7.27;;
3999;SDS011;2014;53.604;10.112;2023-03-03T08:06:49;8.47;;;7.33;;
3999;SDS011;2014;53.604;10.112;2023-03-03T08:09:28;9.70;;;6.60;;
3999;SDS011;2014;53.604;10.112;2023-03-03T08:11:56;7.73;;;7.03;;
3999;SDS011;2014;53.604;10.112;2023-03-03T08:14:26;8.27;;;7.20;;
3999;SDS011;2014;53.604;10.112;2023-03-03T08:16:54;7.07;;;6.30;;
3999;SDS011;2014;53.604;10.112;2023-03-03T08:19:23;6.70;;;6.17;;
3999;SDS011;2014;53.604;10.112;2023-03-03T08:21:51;9.93;;;4.97;;
3999;SDS011;2014;53.604;10.112;2023-03-03T08:24:18;7.67;;;6.80;;
3999;SDS011;2014;53.604;10.112;2023-03-03T08:26:46;5.90;;;5.40;;
3999;SDS011;2014;53.604;10.112;2023-03-03T08:29:13;6.10;;;5.50;;
3999;SDS011;2014;53.604;10.112;2023-03-03T08:31:41;5.80;;;5.40;;
3999;SDS011;2014;53.604;10.112;2023-03-03T08:34:08;20.23;;;6.93;;
3999;SDS011;2014;53.604;10.112;2023-03-03T08:36:37;7.27;;;6.67;;
3999;SDS011;2014;53.604;10.112;2023-03-03T08:39:04;7.90;;;7.20;;
3999;SDS011;2014;53.604;10.112;2023-03-03T08:41:31;11.63;;;7.57;;
3999;SDS011;2014;53.604;10.112;2023-03-03T08:43:58;9.60;;;7.37;;
3999;SDS011;2014;53.604;10.112;2023-03-03T08:46:27;7.33;;;6.67;;
3999;SDS011;2014;53.604;10.112;2023-03-03T08:48:54;10.87;;;7.13;;
3999;SDS011;2014;53.604;10.112;2023-03-03T08:51:22;18.67;;;7.07;;
3999;SDS011;2014;53.604;10.112;2023-03-03T08:53:51;15.53;;;6.40;;
3999;SDS011;2014;53.604;10.112;2023-03-03T08:56:19;9.47;;;6.77;;
3999;SDS011;2014;53.604;10.112;2023-03-03T08:58:46;15.70;;;5.47;;
3999;SDS011;2014;53.604;10.112;2023-03-03T09:01:14;9.60;;;5.50;;
3999;SDS011;2014;53.604;10.112;2023-03-03T09:03:41;8.83;;;6.10;;
3999;SDS011;2014;53.604;10.112;2023-03-03T09:06:09;5.10;;;4.70;;
3999;SDS011;2014;53.604;10.112;2023-03-03T09:08:36;4.93;;;4.57;;
3999;SDS011;2014;53.604;10.112;2023-03-03T09:11:09;5.13;;;4.83;;
3999;SDS011;2014;53.604;10.112;2023-03-03T09:13:38;12.33;;;4.80;;
3999;SDS011;2014;53.604;10.112;2023-03-03T09:16:09;4.97;;;4.67;;
3999;SDS011;2014;53.604;10.112;2023-03-03T09:18:39;5.70;;;5.10;;
3999;SDS011;2014;53.604;10.112;2023-03-03T09:21:16;6.20;;;5.37;;
3999;SDS011;2014;53.604;10.112;2023-03-03T09:23:45;11.17;;;7.70;;
3999;SDS011;2014;53.604;10.112;2023-03-03T09:26:22;6.43;;;5.40;;
3999;SDS011;2014;53.604;10.112;2023-03-03T09:28:52;5.93;;;5.43;;
3999;SDS011;2014;53.604;10.112;2023-03-03T09:31:21;5.80;;;4.93;;
3999;SDS011;2014;53.604;10.112;2023-03-03T09:33:50;5.50;;;5.10;;
3999;SDS011;2014;53.604;10.112;2023-03-03T09:36:22;5.87;;;5.23;;
3999;SDS011;2014;53.604;10.112;2023-03-03T09:38:50;6.57;;;6.07;;
3999;SDS011;2014;53.604;10.112;2023-03-03T09:41:35;5.87;;;5.03;;
3999;SDS011;2014;53.604;10.112;2023-03-03T09:44:10;6.90;;;6.30;;
3999;SDS011;2014;53.604;10.112;2023-03-03T09:46:44;7.00;;;6.13;;
3999;SDS011;2014;53.604;10.112;2023-03-03T09:49:17;6.10;;;5.50;;
3999;SDS011;2014;53.604;10.112;2023-03-03T09:54:44;5.50;;;5.00;;
3999;SDS011;2014;53.604;10.112;2023-03-03T09:57:16;5.47;;;5.07;;
3999;SDS011;2014;53.604;10.112;2023-03-03T09:59:48;4.17;;;3.87;;
3999;SDS011;2014;53.604;10.112;2023-03-03T10:02:24;7.17;;;6.47;;
3999;SDS011;2014;53.604;10.112;2023-03-03T10:04:58;8.80;;;4.90;;
3999;SDS011;2014;53.604;10.112;2023-03-03T10:07:32;10.07;;;7.10;;
3999;SDS011;2014;53.604;10.112;2023-03-03T10:10:05;6.23;;;5.70;;
3999;SDS011;2014;53.604;10.112;2023-03-03T10:12:39;9.30;;;6.10;;
3999;SDS011;2014;53.604;10.112;2023-03-03T10:15:13;5.73;;;5.33;;
3999;SDS011;2014;53.604;10.112;2023-03-03T10:17:47;6.70;;;6.20;;
3999;SDS011;2014;53.604;10.112;2023-03-03T10:20:24;6.00;;;5.50;;
3999;SDS011;2014;53.604;10.112;2023-03-03T10:22:52;9.37;;;7.97;;
3999;SDS011;2014;53.604;10.112;2023-03-03T10:25:23;6.20;;;5.67;;
3999;SDS011;2014;53.604;10.112;2023-03-03T10:28:17;8.60;;;7.57;;
3999;SDS011;2014;53.604;10.112;2023-03-03T10:30:51;8.70;;;7.30;;
3999;SDS011;2014;53.604;10.112;2023-03-03T10:33:22;9.90;;;8.53;;
3999;SDS011;2014;53.604;10.112;2023-03-03T10:36:02;13.50;;;8.70;;
3999;SDS011;2014;53.604;10.112;2023-03-03T10:38:37;7.10;;;6.50;;
3999;SDS011;2014;53.604;10.112;2023-03-03T10:41:12;13.93;;;8.93;;
3999;SDS011;2014;53.604;10.112;2023-03-03T10:43:49;12.57;;;8.60;;
3999;SDS011;2014;53.604;10.112;2023-03-03T10:46:32;13.13;;;9.17;;
3999;SDS011;2014;53.604;10.112;2023-03-03T10:51:54;12.53;;;8.33;;
3999;SDS011;2014;53.604;10.112;2023-03-03T10:54:29;14.80;;;8.17;;
3999;SDS011;2014;53.604;10.112;2023-03-03T10:57:03;13.90;;;8.10;;
3999;SDS011;2014;53.604;10.112;2023-03-03T10:59:42;19.23;;;9.27;;
3999;SDS011;2014;53.604;10.112;2023-03-03T11:02:15;24.07;;;10.07;;
3999;SDS011;2014;53.604;10.112;2023-03-03T11:04:49;16.20;;;9.87;;
3999;SDS011;2014;53.604;10.112;2023-03-03T11:07:20;17.60;;;8.73;;
3999;SDS011;2014;53.604;10.112;2023-03-03T11:09:51;21.53;;;8.17;;
3999;SDS011;2014;53.604;10.112;2023-03-03T11:12:28;11.93;;;8.30;;
3999;SDS011;2014;53.604;10.112;2023-03-03T11:15:04;16.37;;;8.40;;
3999;SDS011;2014;53.604;10.112;2023-03-03T11:17:37;15.27;;;8.50;;
3999;SDS011;2014;53.604;10.112;2023-03-03T11:20:15;13.03;;;8.23;;
3999;SDS011;2014;53.604;10.112;2023-03-03T11:22:49;12.40;;;8.63;;
3999;SDS011;2014;53.604;10.112;2023-03-03T11:25:22;19.57;;;10.20;;
3999;SDS011;2014;53.604;10.112;2023-03-03T11:28:03;15.50;;;9.63;;
3999;SDS011;2014;53.604;10.112;2023-03-03T11:30:38;10.60;;;8.50;;
3999;SDS011;2014;53.604;10.112;2023-03-03T11:33:08;16.00;;;9.67;;
3999;SDS011;2014;53.604;10.112;2023-03-03T11:35:38;11.67;;;8.30;;
3999;SDS011;2014;53.604;10.112;2023-03-03T11:38:10;12.37;;;9.97;;
3999;SDS011;2014;53.604;10.112;2023-03-03T11:40:44;13.60;;;9.23;;
3999;SDS011;2014;53.604;10.112;2023-03-03T11:43:15;13.30;;;8.87;;
3999;SDS011;2014;53.604;10.112;2023-03-03T11:45:45;10.93;;;9.37;;
3999;SDS011;2014;53.604;10.112;2023-03-03T11:48:15;15.00;;;9.03;;
3999;SDS011;2014;53.604;10.112;2023-03-03T11:50:45;13.03;;;9.53;;
3999;SDS011;2014;53.604;10.112;2023-03-03T11:53:22;15.87;;;9.80;;
3999;SDS011;2014;53.604;10.112;2023-03-03T11:55:51;16.67;;;11.00;;
3999;SDS011;2014;53.604;10.112;2023-03-03T11:58:21;12.73;;;9.43;;
3999;SDS011;2014;53.604;10.112;2023-03-03T12:00:51;15.37;;;9.73;;
3999;SDS011;2014;53.604;10.112;2023-03-03T12:03:26;14.20;;;9.13;;
3999;SDS011;2014;53.604;10.112;2023-03-03T12:05:57;11.20;;;9.97;;
3999;SDS011;2014;53.604;10.112;2023-03-03T12:11:23;15.40;;;10.83;;
3999;SDS011;2014;53.604;10.112;2023-03-03T12:13:53;10.87;;;9.67;;
3999;SDS011;2014;53.604;10.112;2023-03-03T12:16:25;10.67;;;9.40;;
3999;SDS011;2014;53.604;10.112;2023-03-03T12:19:02;14.30;;;9.47;;
3999;SDS011;2014;53.604;10.112;2023-03-03T12:21:35;10.43;;;9.17;;
3999;SDS011;2014;53.604;10.112;2023-03-03T12:24:19;10.67;;;8.77;;
3999;SDS011;2014;53.604;10.112;2023-03-03T12:26:51;20.53;;;9.70;;
3999;SDS011;2014;53.604;10.112;2023-03-03T12:29:24;10.43;;;9.10;;
3999;SDS011;2014;53.604;10.112;2023-03-03T12:31:55;12.30;;;9.07;;
3999;SDS011;2014;53.604;10.112;2023-03-03T12:34:25;9.67;;;8.40;;
3999;SDS011;2014;53.604;10.112;2023-03-03T12:39:44;14.03;;;7.57;;
3999;SDS011;2014;53.604;10.112;2023-03-03T12:42:16;10.47;;;7.13;;
3999;SDS011;2014;53.604;10.112;2023-03-03T12:44:49;7.37;;;6.07;;
3999;SDS011;2014;53.604;10.112;2023-03-03T12:47:21;11.00;;;7.53;;
3999;SDS011;2014;53.604;10.112;2023-03-03T12:49:54;15.17;;;7.13;;
3999;SDS011;2014;53.604;10.112;2023-03-03T12:52:27;12.87;;;7.67;;
3999;SDS011;2014;53.604;10.112;2023-03-03T12:54:59;13.80;;;6.60;;
3999;SDS011;2014;53.604;10.112;2023-03-03T12:57:30;8.07;;;5.90;;
3999;SDS011;2014;53.604;10.112;2023-03-03T13:00:02;7.83;;;6.50;;
3999;SDS011;2014;53.604;10.112;2023-03-03T13:02:41;5.87;;;5.33;;
3999;SDS011;2014;53.604;10.112;2023-03-03T13:05:17;9.67;;;4.40;;
3999;SDS011;2014;53.604;10.112;2023-03-03T13:07:46;6.23;;;5.43;;
3999;SDS011;2014;53.604;10.112;2023-03-03T13:10:18;3.93;;;3.27;;
3999;SDS011;2014;53.604;10.112;2023-03-03T13:12:48;4.63;;;3.93;;
3999;SDS011;2014;53.604;10.112;2023-03-03T13:15:18;4.23;;;3.73;;
3999;SDS011;2014;53.604;10.112;2023-03-03T13:17:51;6.23;;;4.40;;
3999;SDS011;2014;53.604;10.112;2023-03-03T13:20:22;3.87;;;3.43;;
3999;SDS011;2014;53.604;10.112;2023-03-03T13:22:52;5.33;;;3.23;;
3999;SDS011;2014;53.604;10.112;2023-03-03T13:25:33;5.77;;;3.10;;
3999;SDS011;2014;53.604;10.112;2023-03-03T13:28:03;5.57;;;3.13;;
3999;SDS011;2014;53.604;10.112;2023-03-03T13:30:34;2.93;;;2.83;;
3999;SDS011;2014;53.604;10.112;2023-03-03T13:33:06;9.07;;;3.20;;
3999;SDS011;2014;53.604;10.112;2023-03-03T13:35:38;4.00;;;1.60;;
3999;SDS011;2014;53.604;10.112;2023-03-03T13:38:09;4.50;;;3.00;;
3999;SDS011;2014;53.604;10.112;2023-03-03T13:40:40;2.93;;;2.73;;
3999;SDS011;2014;53.604;10.112;2023-03-03T13:43:11;3.63;;;2.23;;
3999;SDS011;2014;53.604;10.112;2023-03-03T13:45:41;3.90;;;1.90;;
3999;SDS011;2014;53.604;10.112;2023-03-03T13:48:20;1.60;;;1.50;;
3999;SDS011;2014;53.604;10.112;2023-03-03T13:50:48;4.77;;;1.70;;
3999;SDS011;2014;53.604;10.112;2023-03-03T13:53:29;2.03;;;1.87;;
3999;SDS011;2014;53.604;10.112;2023-03-03T13:56:00;7.60;;;2.00;;
3999;SDS011;2014;53.604;10.112;2023-03-03T13:58:32;1.17;;;1.17;;
3999;SDS011;2014;53.604;10.112;2023-03-03T14:01:05;4.47;;;1.13;;
3999;SDS011;2014;53.604;10.112;2023-03-03T14:03:39;2.00;;;1.57;;
3999;SDS011;2014;53.604;10.112;2023-03-03T14:06:12;5.60;;;1.13;;
3999;SDS011;2014;53.604;10.112;2023-03-03T14:08:47;3.67;;;1.03;;
3999;SDS011;2014;53.604;10.112;2023-03-03T14:11:18;5.53;;;1.40;;
3999;SDS011;2014;53.604;10.112;2023-03-03T14:13:48;4.43;;;1.03;;
3999;SDS011;2014;53.604;10.112;2023-03-03T14:16:21;2.57;;;1.37;;
3999;SDS011;2014;53.604;10.112;2023-03-03T14:18:57;1.27;;;1.20;;
3999;SDS011;2014;53.604;10.112;2023-03-03T14:21:28;1.43;;;0.80;;
3999;SDS011;2014;53.604;10.112;2023-03-03T14:23:58;1.03;;;0.90;;
3999;SDS011;2014;53.604;10.112;2023-03-03T14:26:27;2.37;;;0.80;;
3999;SDS011;2014;53.604;10.112;2023-03-03T14:29:03;1.70;;;1.10;;
3999;SDS011;2014;53.604;10.112;2023-03-03T14:31:37;1.67;;;1.57;;
3999;SDS011;2014;53.604;10.112;2023-03-03T14:34:25;2.57;;;0.80;;
3999;SDS011;2014;53.604;10.112;2023-03-03T14:36:57;1.40;;;1.13;;
3999;SDS011;2014;53.604;10.112;2023-03-03T14:39:28;1.23;;;1.13;;
3999;SDS011;2014;53.604;10.112;2023-03-03T14:41:57;1.33;;;0.97;;
3999;SDS011;2014;53.604;10.112;2023-03-03T14:44:25;0.90;;;0.90;;
3999;SDS011;2014;53.604;10.112;2023-03-03T14:47:00;2.73;;;2.00;;
3999;SDS011;2014;53.604;10.112;2023-03-03T14:49:29;5.57;;;1.10;;
3999;SDS011;2014;53.604;10.112;2023-03-03T14:52:00;1.07;;;0.80;;
3999;SDS011;2014;53.604;10.112;2023-03-03T14:54:29;2.00;;;1.00;;
3999;SDS011;2014;53.604;10.112;2023-03-03T14:56:58;3.90;;;0.93;;
3999;SDS011;2014;53.604;10.112;2023-03-03T14:59:26;3.50;;;0.60;;
3999;SDS011;2014;53.604;10.112;2023-03-03T15:01:59;1.83;;;0.77;;
3999;SDS011;2014;53.604;10.112;2023-03-03T15:04:30;5.33;;;0.90;;
3999;SDS011;2014;53.604;10.112;2023-03-03T15:06:58;3.93;;;1.43;;
3999;SDS011;2014;53.604;10.112;2023-03-03T15:09:27;1.53;;;0.90;;
3999;SDS011;2014;53.604;10.112;2023-03-03T15:11:57;4.87;;;0.47;;
3999;SDS011;2014;53.604;10.112;2023-03-03T15:14:28;5.00;;;1.00;;
3999;SDS011;2014;53.604;10.112;2023-03-03T15:16:55;8.87;;;1.30;;
3999;SDS011;2014;53.604;10.112;2023-03-03T15:22:12;3.07;;;0.93;;